Thursday, June 21, 2018, 12:11 PM EDT
Back to Local

KGFL, Floyd Bennett Memorial Airport

Location: Queensbury, NY, United States Lat: 43.333
Local Time: 12:11 PM EDT (16:11 GMT) Lon: -73.617
Time Zone: US/Eastern Elev: 328 ft

Show me the last for .
Show Decoded

2018-06-21 11:53 METAR KGFL 211553Z AUTO 07009KT 10SM CLR 20/10 A2985 RMK AO2 SLP108 T02000100 =
2018-06-21 10:53 METAR KGFL 211453Z AUTO 06009KT 10SM CLR 19/09 A2985 RMK AO2 SLP110 T01890094
                 51010 =
2018-06-21 10:33 METAR KGFL 211433Z AUTO 05011KT 10SM SCT025 18/09 A2985 RMK AO2 T01830094 =
2018-06-21 10:21 METAR KGFL 211421Z AUTO 05010KT 10SM BKN025 BKN110 18/10 A2985 RMK AO2 T01780100
                 =
2018-06-21 09:53 METAR KGFL 211353Z AUTO 05011KT 10SM FEW025 BKN090 OVC110 17/11 A2984 RMK AO2
                 SLP106 T01720111 =
2018-06-21 08:53 METAR KGFL 211253Z AUTO 06011KT 10SM SCT075 BKN090 BKN110 19/14 A2984 RMK AO2
                 SLP103 T01890139 =
2018-06-21 07:53 METAR KGFL 211153Z AUTO 12003KT 10SM CLR 17/14 A2982 RMK AO2 SLP098 T01670139
                 10167 20100 51017 =
2018-06-21 06:53 METAR KGFL 211053Z AUTO 06004KT 10SM CLR 14/13 A2981 RMK AO2 SLP094 T01390128 =
2018-06-21 05:53 METAR KGFL 210953Z AUTO 00000KT 10SM CLR 11/11 A2979 RMK AO2 SLP089 T01110106 =
2018-06-21 04:53 METAR KGFL 210853Z AUTO 00000KT 10SM CLR 11/10 A2977 RMK AO2 SLP082 T01060100
                 55002 =
2018-06-21 03:53 METAR KGFL 210753Z AUTO 00000KT 4SM BR CLR 11/11 A2977 RMK AO2 SLP081 T01060106
                 =
2018-06-21 02:53 METAR KGFL 210653Z AUTO 00000KT 10SM CLR 11/11 A2977 RMK AO2 SLP082 T01110111 =
2018-06-21 01:53 METAR KGFL 210553Z AUTO 00000KT 10SM CLR 12/11 A2978 RMK AO2 SLP085 T01220111
                 10217 20111 50001 =
2018-06-21 00:53 METAR KGFL 210453Z AUTO 00000KT 10SM CLR 12/11 A2979 RMK AO2 SLP086 T01220111
                 402440078 =
2018-06-20 23:53 METAR KGFL 210353Z AUTO 00000KT 10SM CLR 13/12 A2978 RMK AO2 SLP084 T01280122 =
2018-06-20 22:53 METAR KGFL 210253Z AUTO 00000KT 10SM CLR 15/12 A2978 RMK AO2 SLP083 T01500122
                 50006 =
2018-06-20 21:53 METAR KGFL 210153Z AUTO 20005KT 10SM CLR 16/12 A2978 RMK AO2 SLP083 T01610117 =
2018-06-20 20:53 METAR KGFL 210053Z AUTO 18005KT 10SM CLR 18/12 A2977 RMK AO2 SLP078 T01830117 =
2018-06-20 19:53 METAR KGFL 202353Z AUTO 18006KT 10SM CLR 22/11 A2976 RMK AO2 SLP076 T02220106
                 10244 20217 55006 =
2018-06-20 18:53 METAR KGFL 202253Z AUTO 19009KT 10SM CLR 24/12 A2976 RMK AO2 SLP075 T02390117 =
2018-06-20 17:53 METAR KGFL 202153Z AUTO 18010KT 10SM CLR 23/12 A2976 RMK AO2 SLP079 T02330122 =
2018-06-20 16:53 METAR KGFL 202053Z AUTO 18011KT 10SM CLR 24/12 A2978 RMK AO2 SLP084 T02440122
                 58017 =
2018-06-20 15:53 METAR KGFL 201953Z AUTO 18010G16KT 10SM CLR 24/13 A2980 RMK AO2 SLP091 T02390128
                 =
2018-06-20 14:53 METAR KGFL 201853Z AUTO 20010KT 10SM CLR 23/12 A2981 RMK AO2 SLP095 T02330122 =
2018-06-20 13:53 METAR KGFL 201753Z AUTO 17008KT 10SM CLR 23/13 A2983 RMK AO2 SLP101 T02280133
                 10239 20156 56017 =
2018-06-20 12:53 METAR KGFL 201653Z AUTO 18009KT 10SM CLR 23/13 A2983 RMK AO2 SLP103 T02330128 =

Support USWX by starting your Amazon purchase here.